sensor_id;sensor_type;location;lat;lon;timestamp;P1;durP1;ratioP1;P2;durP2;ratioP2
27899;SDS011;15243;50.726;7.080;2022-09-03T00:01:43;4.47;;;1.35;;
27899;SDS011;15243;50.726;7.080;2022-09-03T00:04:24;3.22;;;1.48;;
27899;SDS011;15243;50.726;7.080;2022-09-03T00:07:02;3.70;;;1.40;;
27899;SDS011;15243;50.726;7.080;2022-09-03T00:09:35;2.15;;;1.27;;
27899;SDS011;15243;50.726;7.080;2022-09-03T00:14:46;2.38;;;1.52;;
27899;SDS011;15243;50.726;7.080;2022-09-03T00:17:19;6.30;;;1.73;;
27899;SDS011;15243;50.726;7.080;2022-09-03T00:19:57;2.55;;;1.38;;
27899;SDS011;15243;50.726;7.080;2022-09-03T00:22:31;3.40;;;1.40;;
27899;SDS011;15243;50.726;7.080;2022-09-03T00:25:02;3.13;;;1.40;;
27899;SDS011;15243;50.726;7.080;2022-09-03T00:27:32;2.00;;;1.40;;
27899;SDS011;15243;50.726;7.080;2022-09-03T00:30:08;3.88;;;1.10;;
27899;SDS011;15243;50.726;7.080;2022-09-03T00:32:58;4.57;;;1.60;;
27899;SDS011;15243;50.726;7.080;2022-09-03T00:35:33;4.15;;;1.55;;
27899;SDS011;15243;50.726;7.080;2022-09-03T00:38:10;2.47;;;1.30;;
27899;SDS011;15243;50.726;7.080;2022-09-03T00:46:52;2.72;;;1.38;;
27899;SDS011;15243;50.726;7.080;2022-09-03T00:49:36;1.70;;;1.38;;
27899;SDS011;15243;50.726;7.080;2022-09-03T00:52:18;6.20;;;1.80;;
27899;SDS011;15243;50.726;7.080;2022-09-03T00:55:21;8.00;;;2.15;;
27899;SDS011;15243;50.726;7.080;2022-09-03T01:00:31;4.35;;;1.35;;
27899;SDS011;15243;50.726;7.080;2022-09-03T01:03:15;5.28;;;1.65;;
27899;SDS011;15243;50.726;7.080;2022-09-03T01:09:00;3.25;;;1.45;;
27899;SDS011;15243;50.726;7.080;2022-09-03T01:14:16;2.63;;;1.38;;
27899;SDS011;15243;50.726;7.080;2022-09-03T01:20:01;3.40;;;1.50;;
27899;SDS011;15243;50.726;7.080;2022-09-03T01:22:43;3.83;;;1.35;;
27899;SDS011;15243;50.726;7.080;2022-09-03T01:25:24;5.38;;;1.83;;
27899;SDS011;15243;50.726;7.080;2022-09-03T01:28:28;2.58;;;1.50;;
27899;SDS011;15243;50.726;7.080;2022-09-03T01:31:17;2.17;;;1.50;;
27899;SDS011;15243;50.726;7.080;2022-09-03T01:34:12;2.13;;;1.48;;
27899;SDS011;15243;50.726;7.080;2022-09-03T01:45:16;3.28;;;1.48;;
27899;SDS011;15243;50.726;7.080;2022-09-03T01:49:02;4.63;;;2.13;;
27899;SDS011;15243;50.726;7.080;2022-09-03T01:51:27;2.47;;;1.60;;
27899;SDS011;15243;50.726;7.080;2022-09-03T01:59:14;2.10;;;1.38;;
27899;SDS011;15243;50.726;7.080;2022-09-03T02:01:51;6.57;;;1.70;;
27899;SDS011;15243;50.726;7.080;2022-09-03T02:04:31;2.75;;;1.58;;
27899;SDS011;15243;50.726;7.080;2022-09-03T02:06:59;2.15;;;1.48;;
27899;SDS011;15243;50.726;7.080;2022-09-03T02:09:27;3.88;;;1.67;;
27899;SDS011;15243;50.726;7.080;2022-09-03T02:14:33;2.65;;;1.67;;
27899;SDS011;15243;50.726;7.080;2022-09-03T02:17:01;5.28;;;1.52;;
27899;SDS011;15243;50.726;7.080;2022-09-03T02:19:30;3.55;;;1.63;;
27899;SDS011;15243;50.726;7.080;2022-09-03T02:21:57;3.40;;;1.77;;
27899;SDS011;15243;50.726;7.080;2022-09-03T02:24:24;3.15;;;2.13;;
27899;SDS011;15243;50.726;7.080;2022-09-03T02:26:53;3.15;;;1.70;;
27899;SDS011;15243;50.726;7.080;2022-09-03T02:29:21;5.95;;;1.98;;
27899;SDS011;15243;50.726;7.080;2022-09-03T02:31:49;2.38;;;1.48;;
27899;SDS011;15243;50.726;7.080;2022-09-03T02:34:17;2.78;;;1.55;;
27899;SDS011;15243;50.726;7.080;2022-09-03T02:36:45;2.72;;;1.40;;
27899;SDS011;15243;50.726;7.080;2022-09-03T02:39:13;4.40;;;2.15;;
27899;SDS011;15243;50.726;7.080;2022-09-03T02:41:41;2.53;;;1.52;;
27899;SDS011;15243;50.726;7.080;2022-09-03T02:44:20;6.55;;;1.38;;
27899;SDS011;15243;50.726;7.080;2022-09-03T02:46:57;4.50;;;1.42;;
27899;SDS011;15243;50.726;7.080;2022-09-03T02:49:24;5.97;;;1.38;;
27899;SDS011;15243;50.726;7.080;2022-09-03T02:51:56;2.88;;;1.60;;
27899;SDS011;15243;50.726;7.080;2022-09-03T02:54:27;3.03;;;1.40;;
27899;SDS011;15243;50.726;7.080;2022-09-03T02:56:54;4.32;;;1.30;;
27899;SDS011;15243;50.726;7.080;2022-09-03T02:59:21;2.63;;;1.40;;
27899;SDS011;15243;50.726;7.080;2022-09-03T03:01:48;2.38;;;1.40;;
27899;SDS011;15243;50.726;7.080;2022-09-03T03:04:15;2.38;;;1.67;;
27899;SDS011;15243;50.726;7.080;2022-09-03T03:06:42;2.30;;;1.40;;
27899;SDS011;15243;50.726;7.080;2022-09-03T03:09:12;2.20;;;1.30;;
27899;SDS011;15243;50.726;7.080;2022-09-03T03:11:39;9.77;;;1.50;;
27899;SDS011;15243;50.726;7.080;2022-09-03T03:14:06;1.50;;;1.15;;
27899;SDS011;15243;50.726;7.080;2022-09-03T03:16:33;3.35;;;1.35;;
27899;SDS011;15243;50.726;7.080;2022-09-03T03:19:00;3.72;;;1.48;;
27899;SDS011;15243;50.726;7.080;2022-09-03T03:21:27;3.25;;;1.42;;
27899;SDS011;15243;50.726;7.080;2022-09-03T03:23:54;4.18;;;1.23;;
27899;SDS011;15243;50.726;7.080;2022-09-03T03:26:21;4.82;;;1.42;;
27899;SDS011;15243;50.726;7.080;2022-09-03T03:28:49;2.72;;;1.33;;
27899;SDS011;15243;50.726;7.080;2022-09-03T03:31:22;3.85;;;1.70;;
27899;SDS011;15243;50.726;7.080;2022-09-03T03:33:50;2.00;;;1.40;;
27899;SDS011;15243;50.726;7.080;2022-09-03T03:36:18;2.75;;;1.40;;
27899;SDS011;15243;50.726;7.080;2022-09-03T03:38:45;2.47;;;1.60;;
27899;SDS011;15243;50.726;7.080;2022-09-03T03:41:14;2.42;;;1.45;;
27899;SDS011;15243;50.726;7.080;2022-09-03T03:43:42;2.38;;;1.45;;
27899;SDS011;15243;50.726;7.080;2022-09-03T03:46:09;3.63;;;1.45;;
27899;SDS011;15243;50.726;7.080;2022-09-03T03:48:37;3.15;;;1.52;;
27899;SDS011;15243;50.726;7.080;2022-09-03T03:51:06;4.80;;;1.50;;
27899;SDS011;15243;50.726;7.080;2022-09-03T03:53:35;5.70;;;1.40;;
27899;SDS011;15243;50.726;7.080;2022-09-03T03:56:04;2.70;;;1.20;;
27899;SDS011;15243;50.726;7.080;2022-09-03T03:58:32;1.52;;;1.20;;
27899;SDS011;15243;50.726;7.080;2022-09-03T04:01:06;1.98;;;1.35;;
27899;SDS011;15243;50.726;7.080;2022-09-03T04:03:36;3.92;;;1.50;;
27899;SDS011;15243;50.726;7.080;2022-09-03T04:06:03;5.70;;;1.77;;
27899;SDS011;15243;50.726;7.080;2022-09-03T04:08:34;2.08;;;1.30;;
27899;SDS011;15243;50.726;7.080;2022-09-03T04:11:03;5.72;;;1.42;;
27899;SDS011;15243;50.726;7.080;2022-09-03T04:13:32;2.53;;;1.42;;
27899;SDS011;15243;50.726;7.080;2022-09-03T04:16:05;3.85;;;1.83;;
27899;SDS011;15243;50.726;7.080;2022-09-03T04:18:37;2.63;;;1.55;;
27899;SDS011;15243;50.726;7.080;2022-09-03T04:21:05;3.35;;;1.50;;
27899;SDS011;15243;50.726;7.080;2022-09-03T04:23:37;6.68;;;1.70;;
27899;SDS011;15243;50.726;7.080;2022-09-03T04:26:11;2.45;;;1.30;;
27899;SDS011;15243;50.726;7.080;2022-09-03T04:28:40;3.67;;;1.55;;
27899;SDS011;15243;50.726;7.080;2022-09-03T04:31:09;3.38;;;1.50;;
27899;SDS011;15243;50.726;7.080;2022-09-03T04:33:37;4.03;;;1.58;;
27899;SDS011;15243;50.726;7.080;2022-09-03T04:36:08;2.42;;;1.50;;
27899;SDS011;15243;50.726;7.080;2022-09-03T04:38:38;2.30;;;1.20;;
27899;SDS011;15243;50.726;7.080;2022-09-03T04:41:08;6.03;;;1.70;;
27899;SDS011;15243;50.726;7.080;2022-09-03T04:43:37;2.40;;;1.55;;
27899;SDS011;15243;50.726;7.080;2022-09-03T04:46:05;3.05;;;1.50;;
27899;SDS011;15243;50.726;7.080;2022-09-03T04:48:43;1.80;;;1.30;;
27899;SDS011;15243;50.726;7.080;2022-09-03T04:51:13;6.70;;;2.20;;
27899;SDS011;15243;50.726;7.080;2022-09-03T04:53:43;2.78;;;1.40;;
27899;SDS011;15243;50.726;7.080;2022-09-03T04:56:15;1.40;;;1.00;;
27899;SDS011;15243;50.726;7.080;2022-09-03T04:58:43;1.85;;;1.27;;
27899;SDS011;15243;50.726;7.080;2022-09-03T05:01:11;2.75;;;1.63;;
27899;SDS011;15243;50.726;7.080;2022-09-03T05:03:40;2.97;;;1.30;;
27899;SDS011;15243;50.726;7.080;2022-09-03T05:06:07;2.05;;;1.30;;
27899;SDS011;15243;50.726;7.080;2022-09-03T05:08:35;3.20;;;1.15;;
27899;SDS011;15243;50.726;7.080;2022-09-03T05:11:03;1.88;;;1.17;;
27899;SDS011;15243;50.726;7.080;2022-09-03T05:13:30;1.38;;;0.90;;
27899;SDS011;15243;50.726;7.080;2022-09-03T05:16:02;3.10;;;1.27;;
27899;SDS011;15243;50.726;7.080;2022-09-03T05:18:31;2.85;;;1.50;;
27899;SDS011;15243;50.726;7.080;2022-09-03T05:21:04;3.70;;;0.88;;
27899;SDS011;15243;50.726;7.080;2022-09-03T05:23:39;5.15;;;2.53;;
27899;SDS011;15243;50.726;7.080;2022-09-03T05:26:08;2.00;;;1.25;;
27899;SDS011;15243;50.726;7.080;2022-09-03T05:28:38;2.00;;;1.30;;
27899;SDS011;15243;50.726;7.080;2022-09-03T05:31:07;2.03;;;1.00;;
27899;SDS011;15243;50.726;7.080;2022-09-03T05:33:37;2.22;;;1.05;;
27899;SDS011;15243;50.726;7.080;2022-09-03T05:36:13;3.78;;;1.48;;
27899;SDS011;15243;50.726;7.080;2022-09-03T05:41:09;3.45;;;1.15;;
27899;SDS011;15243;50.726;7.080;2022-09-03T05:43:38;3.92;;;0.98;;
27899;SDS011;15243;50.726;7.080;2022-09-03T05:46:06;2.90;;;1.30;;
27899;SDS011;15243;50.726;7.080;2022-09-03T05:48:39;3.38;;;1.05;;
27899;SDS011;15243;50.726;7.080;2022-09-03T05:51:10;3.70;;;1.50;;
27899;SDS011;15243;50.726;7.080;2022-09-03T05:53:44;7.25;;;1.00;;
27899;SDS011;15243;50.726;7.080;2022-09-03T05:56:14;3.30;;;1.08;;
27899;SDS011;15243;50.726;7.080;2022-09-03T05:58:50;5.45;;;1.10;;
27899;SDS011;15243;50.726;7.080;2022-09-03T06:01:23;3.63;;;1.00;;
27899;SDS011;15243;50.726;7.080;2022-09-03T06:03:58;6.70;;;1.02;;
27899;SDS011;15243;50.726;7.080;2022-09-03T06:06:27;1.35;;;0.93;;
27899;SDS011;15243;50.726;7.080;2022-09-03T06:09:14;3.03;;;1.38;;
27899;SDS011;15243;50.726;7.080;2022-09-03T06:11:44;1.85;;;0.90;;
27899;SDS011;15243;50.726;7.080;2022-09-03T06:14:15;3.25;;;0.93;;
27899;SDS011;15243;50.726;7.080;2022-09-03T06:16:43;3.28;;;0.80;;
27899;SDS011;15243;50.726;7.080;2022-09-03T06:19:14;1.00;;;0.90;;
27899;SDS011;15243;50.726;7.080;2022-09-03T06:21:42;3.47;;;1.17;;
27899;SDS011;15243;50.726;7.080;2022-09-03T06:24:11;2.58;;;1.02;;
27899;SDS011;15243;50.726;7.080;2022-09-03T06:26:41;3.63;;;1.10;;
27899;SDS011;15243;50.726;7.080;2022-09-03T06:29:09;2.78;;;0.95;;
27899;SDS011;15243;50.726;7.080;2022-09-03T06:31:37;1.23;;;0.90;;
27899;SDS011;15243;50.726;7.080;2022-09-03T06:34:05;3.65;;;1.23;;
27899;SDS011;15243;50.726;7.080;2022-09-03T06:36:32;4.13;;;1.08;;
27899;SDS011;15243;50.726;7.080;2022-09-03T06:38:59;3.75;;;0.90;;
27899;SDS011;15243;50.726;7.080;2022-09-03T06:41:27;9.25;;;1.10;;
27899;SDS011;15243;50.726;7.080;2022-09-03T06:44:02;3.42;;;0.82;;
27899;SDS011;15243;50.726;7.080;2022-09-03T06:49:00;3.40;;;1.10;;
27899;SDS011;15243;50.726;7.080;2022-09-03T06:51:28;2.30;;;0.80;;
27899;SDS011;15243;50.726;7.080;2022-09-03T06:54:00;1.40;;;0.88;;
27899;SDS011;15243;50.726;7.080;2022-09-03T06:56:32;2.25;;;1.25;;
27899;SDS011;15243;50.726;7.080;2022-09-03T06:59:06;1.48;;;0.65;;
27899;SDS011;15243;50.726;7.080;2022-09-03T07:01:40;6.13;;;1.17;;
27899;SDS011;15243;50.726;7.080;2022-09-03T07:04:12;2.58;;;1.20;;
27899;SDS011;15243;50.726;7.080;2022-09-03T07:06:44;4.43;;;0.88;;
27899;SDS011;15243;50.726;7.080;2022-09-03T07:09:11;0.98;;;0.63;;
27899;SDS011;15243;50.726;7.080;2022-09-03T07:11:41;6.22;;;1.00;;
27899;SDS011;15243;50.726;7.080;2022-09-03T07:14:14;2.92;;;1.00;;
27899;SDS011;15243;50.726;7.080;2022-09-03T07:16:45;2.80;;;0.82;;
27899;SDS011;15243;50.726;7.080;2022-09-03T07:19:16;1.13;;;0.60;;
27899;SDS011;15243;50.726;7.080;2022-09-03T07:21:43;4.70;;;1.02;;
27899;SDS011;15243;50.726;7.080;2022-09-03T07:24:16;1.17;;;0.80;;
27899;SDS011;15243;50.726;7.080;2022-09-03T07:26:45;2.25;;;1.00;;
27899;SDS011;15243;50.726;7.080;2022-09-03T07:29:14;8.48;;;0.93;;
27899;SDS011;15243;50.726;7.080;2022-09-03T07:31:42;1.67;;;1.08;;
27899;SDS011;15243;50.726;7.080;2022-09-03T07:34:10;2.33;;;1.13;;
27899;SDS011;15243;50.726;7.080;2022-09-03T07:36:39;3.90;;;1.27;;
27899;SDS011;15243;50.726;7.080;2022-09-03T07:39:09;1.92;;;1.02;;
27899;SDS011;15243;50.726;7.080;2022-09-03T07:41:37;2.00;;;1.00;;
27899;SDS011;15243;50.726;7.080;2022-09-03T07:44:08;1.92;;;1.35;;
27899;SDS011;15243;50.726;7.080;2022-09-03T07:46:36;8.20;;;1.55;;
27899;SDS011;15243;50.726;7.080;2022-09-03T07:49:03;4.32;;;1.42;;
27899;SDS011;15243;50.726;7.080;2022-09-03T07:51:35;4.35;;;1.40;;
27899;SDS011;15243;50.726;7.080;2022-09-03T07:54:04;4.07;;;1.70;;
27899;SDS011;15243;50.726;7.080;2022-09-03T07:56:35;4.00;;;1.60;;
27899;SDS011;15243;50.726;7.080;2022-09-03T07:59:03;1.92;;;1.50;;
27899;SDS011;15243;50.726;7.080;2022-09-03T08:01:31;5.43;;;1.50;;
27899;SDS011;15243;50.726;7.080;2022-09-03T08:03:59;2.65;;;1.60;;
27899;SDS011;15243;50.726;7.080;2022-09-03T08:06:28;2.80;;;1.90;;
27899;SDS011;15243;50.726;7.080;2022-09-03T08:08:57;3.40;;;1.80;;
27899;SDS011;15243;50.726;7.080;2022-09-03T08:11:31;4.88;;;1.90;;
27899;SDS011;15243;50.726;7.080;2022-09-03T08:14:05;3.03;;;1.77;;
27899;SDS011;15243;50.726;7.080;2022-09-03T08:16:35;5.10;;;1.70;;
27899;SDS011;15243;50.726;7.080;2022-09-03T08:19:07;3.17;;;1.58;;
27899;SDS011;15243;50.726;7.080;2022-09-03T08:21:36;2.85;;;2.00;;
27899;SDS011;15243;50.726;7.080;2022-09-03T08:24:06;5.30;;;2.00;;
27899;SDS011;15243;50.726;7.080;2022-09-03T08:26:38;2.78;;;1.58;;
27899;SDS011;15243;50.726;7.080;2022-09-03T08:29:07;4.45;;;2.03;;
27899;SDS011;15243;50.726;7.080;2022-09-03T08:31:34;2.70;;;2.03;;
27899;SDS011;15243;50.726;7.080;2022-09-03T08:34:02;1.67;;;1.58;;
27899;SDS011;15243;50.726;7.080;2022-09-03T08:36:33;5.05;;;1.75;;
27899;SDS011;15243;50.726;7.080;2022-09-03T08:39:02;3.72;;;1.83;;
27899;SDS011;15243;50.726;7.080;2022-09-03T08:47:29;2.78;;;1.77;;
27899;SDS011;15243;50.726;7.080;2022-09-03T08:52:51;3.35;;;1.88;;
27899;SDS011;15243;50.726;7.080;2022-09-03T08:55:42;3.25;;;1.40;;
27899;SDS011;15243;50.726;7.080;2022-09-03T08:58:17;3.05;;;1.88;;
27899;SDS011;15243;50.726;7.080;2022-09-03T09:01:05;3.63;;;1.60;;
27899;SDS011;15243;50.726;7.080;2022-09-03T09:15:03;4.03;;;1.27;;
27899;SDS011;15243;50.726;7.080;2022-09-03T09:23:05;4.47;;;1.40;;
27899;SDS011;15243;50.726;7.080;2022-09-03T09:25:38;2.80;;;1.45;;
27899;SDS011;15243;50.726;7.080;2022-09-03T09:28:17;6.70;;;1.52;;
27899;SDS011;15243;50.726;7.080;2022-09-03T09:30:53;5.97;;;1.50;;
27899;SDS011;15243;50.726;7.080;2022-09-03T09:33:22;5.07;;;1.70;;
27899;SDS011;15243;50.726;7.080;2022-09-03T09:35:50;4.13;;;1.13;;
27899;SDS011;15243;50.726;7.080;2022-09-03T09:38:26;1.70;;;1.20;;
27899;SDS011;15243;50.726;7.080;2022-09-03T09:41:12;4.25;;;1.50;;
27899;SDS011;15243;50.726;7.080;2022-09-03T09:43:41;1.42;;;1.33;;
27899;SDS011;15243;50.726;7.080;2022-09-03T09:46:13;2.55;;;1.42;;
27899;SDS011;15243;50.726;7.080;2022-09-03T09:48:51;2.47;;;1.52;;
27899;SDS011;15243;50.726;7.080;2022-09-03T09:51:27;2.25;;;1.17;;
27899;SDS011;15243;50.726;7.080;2022-09-03T09:54:23;3.95;;;1.10;;
27899;SDS011;15243;50.726;7.080;2022-09-03T09:57:00;4.53;;;1.65;;
27899;SDS011;15243;50.726;7.080;2022-09-03T09:59:30;6.68;;;1.75;;
27899;SDS011;15243;50.726;7.080;2022-09-03T10:02:12;2.10;;;1.05;;
27899;SDS011;15243;50.726;7.080;2022-09-03T10:04:47;5.10;;;1.30;;
27899;SDS011;15243;50.726;7.080;2022-09-03T10:07:20;5.43;;;1.45;;
27899;SDS011;15243;50.726;7.080;2022-09-03T10:09:57;3.75;;;1.63;;
27899;SDS011;15243;50.726;7.080;2022-09-03T10:23:27;3.80;;;1.73;;
27899;SDS011;15243;50.726;7.080;2022-09-03T10:26:18;4.45;;;1.38;;
27899;SDS011;15243;50.726;7.080;2022-09-03T10:28:59;2.30;;;1.52;;
27899;SDS011;15243;50.726;7.080;2022-09-03T10:37:21;5.47;;;1.73;;
27899;SDS011;15243;50.726;7.080;2022-09-03T10:46:26;2.15;;;1.40;;
27899;SDS011;15243;50.726;7.080;2022-09-03T11:02:34;3.30;;;1.48;;
27899;SDS011;15243;50.726;7.080;2022-09-03T11:05:34;3.80;;;2.00;;
27899;SDS011;15243;50.726;7.080;2022-09-03T11:10:54;3.90;;;1.70;;
27899;SDS011;15243;50.726;7.080;2022-09-03T11:13:30;6.60;;;1.77;;
27899;SDS011;15243;50.726;7.080;2022-09-03T11:16:08;5.20;;;2.20;;
27899;SDS011;15243;50.726;7.080;2022-09-03T11:21:21;5.50;;;2.30;;
27899;SDS011;15243;50.726;7.080;2022-09-03T11:23:53;4.78;;;1.98;;
27899;SDS011;15243;50.726;7.080;2022-09-03T11:26:30;4.47;;;1.85;;
27899;SDS011;15243;50.726;7.080;2022-09-03T11:29:09;6.93;;;2.15;;
27899;SDS011;15243;50.726;7.080;2022-09-03T11:34:45;3.55;;;1.70;;
27899;SDS011;15243;50.726;7.080;2022-09-03T11:39:55;4.22;;;1.58;;
27899;SDS011;15243;50.726;7.080;2022-09-03T11:42:46;1.95;;;1.75;;
27899;SDS011;15243;50.726;7.080;2022-09-03T11:47:50;5.07;;;2.05;;
27899;SDS011;15243;50.726;7.080;2022-09-03T11:50:20;3.00;;;1.80;;
27899;SDS011;15243;50.726;7.080;2022-09-03T11:58:22;5.13;;;1.95;;
27899;SDS011;15243;50.726;7.080;2022-09-03T12:01:15;6.20;;;2.30;;
27899;SDS011;15243;50.726;7.080;2022-09-03T12:03:57;5.05;;;1.90;;
27899;SDS011;15243;50.726;7.080;2022-09-03T12:06:40;2.57;;;2.00;;
27899;SDS011;15243;50.726;7.080;2022-09-03T12:25:53;4.10;;;1.83;;
27899;SDS011;15243;50.726;7.080;2022-09-03T12:28:21;6.65;;;2.22;;
27899;SDS011;15243;50.726;7.080;2022-09-03T12:30:50;5.80;;;2.10;;
27899;SDS011;15243;50.726;7.080;2022-09-03T12:33:19;5.05;;;2.30;;
27899;SDS011;15243;50.726;7.080;2022-09-03T12:35:57;5.63;;;2.30;;
27899;SDS011;15243;50.726;7.080;2022-09-03T12:38:27;4.10;;;1.95;;
27899;SDS011;15243;50.726;7.080;2022-09-03T12:41:24;3.17;;;2.22;;
27899;SDS011;15243;50.726;7.080;2022-09-03T12:43:54;5.47;;;2.00;;
27899;SDS011;15243;50.726;7.080;2022-09-03T12:46:23;4.43;;;2.35;;
27899;SDS011;15243;50.726;7.080;2022-09-03T12:49:00;2.80;;;1.90;;
27899;SDS011;15243;50.726;7.080;2022-09-03T12:51:50;4.72;;;2.08;;
27899;SDS011;15243;50.726;7.080;2022-09-03T12:54:30;4.72;;;1.92;;
27899;SDS011;15243;50.726;7.080;2022-09-03T12:56:58;5.35;;;1.92;;
27899;SDS011;15243;50.726;7.080;2022-09-03T12:59:26;2.15;;;1.90;;
27899;SDS011;15243;50.726;7.080;2022-09-03T13:01:59;4.35;;;1.77;;
27899;SDS011;15243;50.726;7.080;2022-09-03T13:04:32;3.88;;;1.90;;
27899;SDS011;15243;50.726;7.080;2022-09-03T13:10:01;5.18;;;1.83;;
27899;SDS011;15243;50.726;7.080;2022-09-03T13:12:42;3.95;;;1.98;;
27899;SDS011;15243;50.726;7.080;2022-09-03T13:15:22;5.65;;;1.90;;
27899;SDS011;15243;50.726;7.080;2022-09-03T13:20:28;3.25;;;1.70;;
27899;SDS011;15243;50.726;7.080;2022-09-03T13:25:36;7.10;;;1.90;;
27899;SDS011;15243;50.726;7.080;2022-09-03T13:28:47;3.28;;;1.92;;
27899;SDS011;15243;50.726;7.080;2022-09-03T13:31:35;3.33;;;2.10;;
27899;SDS011;15243;50.726;7.080;2022-09-03T13:34:19;4.43;;;1.73;;
27899;SDS011;15243;50.726;7.080;2022-09-03T13:36:53;3.05;;;1.73;;
27899;SDS011;15243;50.726;7.080;2022-09-03T13:39:27;2.05;;;1.67;;
27899;SDS011;15243;50.726;7.080;2022-09-03T13:42:12;5.50;;;1.70;;
27899;SDS011;15243;50.726;7.080;2022-09-03T13:45:04;4.10;;;1.77;;
27899;SDS011;15243;50.726;7.080;2022-09-03T13:47:42;2.08;;;1.75;;
27899;SDS011;15243;50.726;7.080;2022-09-03T13:54:03;3.00;;;1.60;;
27899;SDS011;15243;50.726;7.080;2022-09-03T13:56:34;2.63;;;1.90;;
27899;SDS011;15243;50.726;7.080;2022-09-03T13:59:16;4.25;;;1.65;;
27899;SDS011;15243;50.726;7.080;2022-09-03T14:10:22;3.10;;;1.58;;
27899;SDS011;15243;50.726;7.080;2022-09-03T14:15:34;6.50;;;1.60;;
27899;SDS011;15243;50.726;7.080;2022-09-03T14:20:58;2.58;;;1.48;;
27899;SDS011;15243;50.726;7.080;2022-09-03T14:23:38;1.40;;;1.30;;
27899;SDS011;15243;50.726;7.080;2022-09-03T14:26:15;4.97;;;1.40;;
27899;SDS011;15243;50.726;7.080;2022-09-03T14:29:13;3.83;;;1.40;;
27899;SDS011;15243;50.726;7.080;2022-09-03T14:40:28;3.42;;;1.45;;
27899;SDS011;15243;50.726;7.080;2022-09-03T14:46:09;4.28;;;1.67;;
27899;SDS011;15243;50.726;7.080;2022-09-03T14:48:49;1.63;;;1.30;;
27899;SDS011;15243;50.726;7.080;2022-09-03T14:56:58;2.58;;;1.50;;
27899;SDS011;15243;50.726;7.080;2022-09-03T14:59:54;1.65;;;1.50;;
27899;SDS011;15243;50.726;7.080;2022-09-03T15:11:31;1.73;;;1.60;;
27899;SDS011;15243;50.726;7.080;2022-09-03T15:14:16;2.30;;;1.20;;
27899;SDS011;15243;50.726;7.080;2022-09-03T15:33:39;6.15;;;1.83;;
27899;SDS011;15243;50.726;7.080;2022-09-03T15:36:36;3.97;;;1.63;;
27899;SDS011;15243;50.726;7.080;2022-09-03T15:39:18;7.30;;;5.22;;
27899;SDS011;15243;50.726;7.080;2022-09-03T15:41:59;3.08;;;2.60;;
27899;SDS011;15243;50.726;7.080;2022-09-03T15:44:41;5.03;;;2.20;;
27899;SDS011;15243;50.726;7.080;2022-09-03T15:59:17;5.47;;;1.85;;
27899;SDS011;15243;50.726;7.080;2022-09-03T16:01:55;3.72;;;1.45;;
27899;SDS011;15243;50.726;7.080;2022-09-03T16:04:42;2.95;;;1.33;;
27899;SDS011;15243;50.726;7.080;2022-09-03T16:15:57;2.15;;;1.35;;
27899;SDS011;15243;50.726;7.080;2022-09-03T16:18:39;2.50;;;1.75;;
27899;SDS011;15243;50.726;7.080;2022-09-03T16:26:53;4.07;;;1.45;;
27899;SDS011;15243;50.726;7.080;2022-09-03T16:29:29;4.28;;;1.83;;
27899;SDS011;15243;50.726;7.080;2022-09-03T16:32:06;2.88;;;1.73;;
27899;SDS011;15243;50.726;7.080;2022-09-03T16:34:48;2.65;;;1.50;;
27899;SDS011;15243;50.726;7.080;2022-09-03T16:42:54;2.45;;;2.25;;
27899;SDS011;15243;50.726;7.080;2022-09-03T16:45:52;3.40;;;1.90;;
27899;SDS011;15243;50.726;7.080;2022-09-03T16:52:03;3.13;;;2.28;;
27899;SDS011;15243;50.726;7.080;2022-09-03T16:58:05;4.97;;;2.25;;
27899;SDS011;15243;50.726;7.080;2022-09-03T17:00:46;2.17;;;1.90;;
27899;SDS011;15243;50.726;7.080;2022-09-03T17:05:56;2.28;;;1.33;;
27899;SDS011;15243;50.726;7.080;2022-09-03T17:20:11;3.63;;;2.10;;
27899;SDS011;15243;50.726;7.080;2022-09-03T17:25:50;4.38;;;2.30;;
27899;SDS011;15243;50.726;7.080;2022-09-03T17:28:42;3.22;;;2.15;;
27899;SDS011;15243;50.726;7.080;2022-09-03T17:31:39;6.65;;;2.58;;
27899;SDS011;15243;50.726;7.080;2022-09-03T17:37:16;3.38;;;2.22;;
27899;SDS011;15243;50.726;7.080;2022-09-03T17:40:02;7.03;;;2.72;;
27899;SDS011;15243;50.726;7.080;2022-09-03T17:51:17;3.80;;;2.15;;
27899;SDS011;15243;50.726;7.080;2022-09-03T17:54:16;2.92;;;2.20;;
27899;SDS011;15243;50.726;7.080;2022-09-03T17:57:18;8.20;;;2.50;;
27899;SDS011;15243;50.726;7.080;2022-09-03T17:59:58;4.88;;;2.58;;
27899;SDS011;15243;50.726;7.080;2022-09-03T18:05:27;3.45;;;2.58;;
27899;SDS011;15243;50.726;7.080;2022-09-03T18:08:03;4.32;;;2.90;;
27899;SDS011;15243;50.726;7.080;2022-09-03T18:16:18;3.38;;;2.58;;
27899;SDS011;15243;50.726;7.080;2022-09-03T18:18:51;3.85;;;2.90;;
27899;SDS011;15243;50.726;7.080;2022-09-03T18:21:24;4.88;;;2.78;;
27899;SDS011;15243;50.726;7.080;2022-09-03T18:27:41;5.53;;;3.03;;
27899;SDS011;15243;50.726;7.080;2022-09-03T18:30:33;4.63;;;2.90;;
27899;SDS011;15243;50.726;7.080;2022-09-03T18:33:20;5.13;;;2.80;;
27899;SDS011;15243;50.726;7.080;2022-09-03T18:36:08;4.47;;;2.80;;
27899;SDS011;15243;50.726;7.080;2022-09-03T18:39:22;3.95;;;2.88;;
27899;SDS011;15243;50.726;7.080;2022-09-03T18:45:03;4.15;;;2.88;;
27899;SDS011;15243;50.726;7.080;2022-09-03T18:48:46;3.42;;;2.78;;
27899;SDS011;15243;50.726;7.080;2022-09-03T19:00:47;4.75;;;2.95;;
27899;SDS011;15243;50.726;7.080;2022-09-03T19:06:41;3.05;;;2.70;;
27899;SDS011;15243;50.726;7.080;2022-09-03T19:10:06;3.47;;;2.50;;
27899;SDS011;15243;50.726;7.080;2022-09-03T19:16:12;5.03;;;3.03;;
27899;SDS011;15243;50.726;7.080;2022-09-03T19:19:19;3.58;;;2.90;;
27899;SDS011;15243;50.726;7.080;2022-09-03T19:22:28;2.83;;;2.50;;
27899;SDS011;15243;50.726;7.080;2022-09-03T19:25:19;4.27;;;2.80;;
27899;SDS011;15243;50.726;7.080;2022-09-03T19:28:16;3.35;;;2.60;;
27899;SDS011;15243;50.726;7.080;2022-09-03T19:37:31;6.03;;;3.40;;
27899;SDS011;15243;50.726;7.080;2022-09-03T19:40:51;4.00;;;2.50;;
27899;SDS011;15243;50.726;7.080;2022-09-03T19:43:51;3.70;;;3.30;;
27899;SDS011;15243;50.726;7.080;2022-09-03T19:46:42;6.35;;;3.60;;
27899;SDS011;15243;50.726;7.080;2022-09-03T19:52:46;5.57;;;3.40;;
27899;SDS011;15243;50.726;7.080;2022-09-03T19:55:54;4.93;;;3.67;;
27899;SDS011;15243;50.726;7.080;2022-09-03T19:58:54;5.05;;;3.28;;
27899;SDS011;15243;50.726;7.080;2022-09-03T20:01:41;5.10;;;3.90;;
27899;SDS011;15243;50.726;7.080;2022-09-03T20:04:32;5.80;;;3.60;;
27899;SDS011;15243;50.726;7.080;2022-09-03T20:07:23;5.03;;;3.45;;
27899;SDS011;15243;50.726;7.080;2022-09-03T20:10:11;6.60;;;3.67;;
27899;SDS011;15243;50.726;7.080;2022-09-03T20:12:59;4.47;;;3.67;;
27899;SDS011;15243;50.726;7.080;2022-09-03T20:18:28;3.92;;;3.63;;
27899;SDS011;15243;50.726;7.080;2022-09-03T20:26:44;5.07;;;4.00;;
27899;SDS011;15243;50.726;7.080;2022-09-03T20:32:18;6.70;;;4.00;;
27899;SDS011;15243;50.726;7.080;2022-09-03T20:35:05;5.30;;;4.18;;
27899;SDS011;15243;50.726;7.080;2022-09-03T20:37:42;5.43;;;4.28;;
27899;SDS011;15243;50.726;7.080;2022-09-03T20:40:18;5.20;;;4.18;;
27899;SDS011;15243;50.726;7.080;2022-09-03T20:43:07;5.43;;;4.38;;
27899;SDS011;15243;50.726;7.080;2022-09-03T20:46:07;5.93;;;5.05;;
27899;SDS011;15243;50.726;7.080;2022-09-03T20:51:38;6.53;;;4.90;;
27899;SDS011;15243;50.726;7.080;2022-09-03T20:54:18;6.97;;;5.22;;
27899;SDS011;15243;50.726;7.080;2022-09-03T20:57:04;7.63;;;5.30;;
27899;SDS011;15243;50.726;7.080;2022-09-03T20:59:39;9.30;;;5.97;;
27899;SDS011;15243;50.726;7.080;2022-09-03T21:12:55;7.20;;;5.40;;
27899;SDS011;15243;50.726;7.080;2022-09-03T21:16:11;7.45;;;5.45;;
27899;SDS011;15243;50.726;7.080;2022-09-03T21:22:10;8.95;;;5.40;;
27899;SDS011;15243;50.726;7.080;2022-09-03T21:25:01;8.30;;;5.18;;
27899;SDS011;15243;50.726;7.080;2022-09-03T21:27:37;8.05;;;5.35;;
27899;SDS011;15243;50.726;7.080;2022-09-03T21:30:14;5.68;;;5.07;;